Terminal Aerodrome Forecast
Issued by NWS

Home | Current Version | Previous Version | Text Only | Print | Product List | Glossary Off
Versions: 1 2 3 4 5 6 7 8 9 10 11 12 13 14 15 16 17 18 19 20 21 22 23 24

518
FTUS43 KLOT 191450 AAA
TAFDPA
TAF AMD
KDPA 191450Z 1915/2012 30008KT P6SM FEW050 SCT250
     FM191900 04009KT P6SM BKN040
     FM192200 08008KT P6SM FEW040 SCT250
     FM200400 15007KT P6SM SCT100 BKN250 PROB30 2005/2011 33015G25KT
      3SM TSRA SCT020 OVC060CB=

USA.gov is the U.S. government's official web portal to all federal, state and local government web resources and services.